Waterstein, United Kingdom
Current Conditions -  °F | °C
As of 10:20 AM on Tuesday 27 Jan 2015 (Local Time) from EGPL Reporting Station
Rain Showers Rain Showers  
Wind Chill: 40°   Ceiling: 2800
Heat Index: 46°   Visibility: 6mi
Dew Point: 45°   Wind: 16mph
Humidity: 93%   Direction: 240°WSW
Pressure: 30.06"   Gusts: NA
Location:  57.43°N, 6.77°W
Report Text: EGPL 271020Z 24014KT 9999 VCSH SCT015 BKN028 08/07 Q1018
Loading
Personal Weather Stations






























Interactive Weather Map New forecast layout! Learn more

10-Day Weather Forecast

Advertisements
Track Severe Weather on mobile